createdAt,value
2023-05-11T00:01:45.245Z,101497.94
2023-05-11T00:04:12.883Z,101485.78
2023-05-11T00:06:40.385Z,101492.72
2023-05-11T00:09:09.353Z,101496.19
2023-05-11T00:11:36.944Z,101482.25
2023-05-11T00:14:04.581Z,101483.16
2023-05-11T00:16:32.179Z,101477.03
2023-05-11T00:18:59.834Z,101474.44
2023-05-11T00:21:27.537Z,101477.03
2023-05-11T00:23:55.073Z,101474.44
2023-05-11T00:26:22.638Z,101471.88
2023-05-11T00:28:50.123Z,101477.03
2023-05-11T00:31:17.635Z,101477.03
2023-05-11T00:33:45.164Z,101480.56
2023-05-11T00:36:12.662Z,101489.25
2023-05-11T00:38:41.196Z,101489.25
2023-05-11T00:41:09.393Z,101489.25
2023-05-11T00:43:36.867Z,101482.31
2023-05-11T00:46:04.738Z,101485.75
2023-05-11T00:48:32.389Z,101487.53
2023-05-11T00:51:04.373Z,101487.50
2023-05-11T00:53:31.899Z,101485.81
2023-05-11T00:56:00.138Z,101482.31
2023-05-11T00:58:28.402Z,101484.09
2023-05-11T01:00:55.945Z,101477.16
2023-05-11T01:03:23.995Z,101486.75
2023-05-11T01:06:17.090Z,101478.94
2023-05-11T01:08:51.872Z,101469.41
2023-05-11T01:11:27.367Z,101482.44
2023-05-11T01:14:01.026Z,101481.59
2023-05-11T01:16:33.015Z,101472.91
2023-05-11T01:19:08.565Z,101472.91
2023-05-11T01:21:37.357Z,101478.13
2023-05-11T01:24:41.695Z,101481.59
2023-05-11T01:27:24.337Z,101482.50
2023-05-11T01:30:16.887Z,101489.47
2023-05-11T01:32:45.581Z,101493.81
2023-05-11T01:35:19.343Z,101484.25
2023-05-11T01:37:51.450Z,101495.50
2023-05-11T01:40:22.541Z,101485.94
2023-05-11T01:42:52.438Z,101478.13
2023-05-11T01:45:20.325Z,101480.75
2023-05-11T01:47:51.091Z,101491.19
2023-05-11T01:50:21.826Z,101496.41
2023-05-11T01:52:51.488Z,101501.59
2023-05-11T01:55:22.407Z,101492.88
2023-05-11T01:57:53.487Z,101492.91
2023-05-11T02:00:21.760Z,101495.53
2023-05-11T02:02:50.796Z,101495.53
2023-05-11T02:05:23.091Z,101491.16
2023-05-11T02:07:52.476Z,101498.13
2023-05-11T02:10:21.356Z,101496.41
2023-05-11T02:12:52.920Z,101499.88
2023-05-11T02:15:22.726Z,101505.09
2023-05-11T02:17:52.070Z,101498.13
2023-05-11T02:20:20.952Z,101496.41
2023-05-11T02:22:50.516Z,101509.47
2023-05-11T02:25:19.146Z,101511.19
2023-05-11T02:27:46.761Z,101515.53
2023-05-11T02:30:14.586Z,101504.25
2023-05-11T02:32:48.679Z,101505.09
2023-05-11T02:35:29.246Z,101508.56
2023-05-11T02:38:00.104Z,101508.56
2023-05-11T02:40:32.269Z,101503.34
2023-05-11T02:43:05.921Z,101509.44
2023-05-11T02:45:35.305Z,101506.00
2023-05-11T02:48:08.589Z,101505.13
2023-05-11T02:50:42.035Z,101509.47
2023-05-11T02:53:15.714Z,101503.41
2023-05-11T02:55:43.490Z,101508.59
2023-05-11T02:58:11.218Z,101499.94
2023-05-11T03:00:40.178Z,101514.72
2023-05-11T03:03:07.952Z,101508.63
2023-05-11T03:05:35.518Z,101509.50
2023-05-11T03:08:03.185Z,101511.25
2023-05-11T03:10:31.461Z,101510.38
2023-05-11T03:13:00.115Z,101512.09
2023-05-11T03:15:28.884Z,101508.63
2023-05-11T03:17:56.906Z,101509.50
2023-05-11T03:20:25.061Z,101510.34
2023-05-11T03:22:53.377Z,101519.06
2023-05-11T03:25:21.698Z,101504.28
2023-05-11T03:27:52.279Z,101505.16
2023-05-11T03:30:21.577Z,101499.06
2023-05-11T03:32:49.350Z,101491.25
2023-05-11T03:35:17.482Z,101484.31
2023-05-11T03:37:46.173Z,101493.88
2023-05-11T03:40:16.830Z,101491.25
2023-05-11T03:42:45.236Z,101477.38
2023-05-11T03:45:15.794Z,101483.44
2023-05-11T03:47:44.537Z,101473.88
2023-05-11T03:50:12.414Z,101477.34
2023-05-11T03:52:40.308Z,101473.88
2023-05-11T03:55:08.916Z,101486.91
2023-05-11T03:57:37.110Z,101478.19
2023-05-11T04:00:05.140Z,101486.03
2023-05-11T04:02:35.720Z,101487.75
2023-05-11T04:05:08.872Z,101478.22
2023-05-11T04:07:38.266Z,101492.97
2023-05-11T04:10:07.134Z,101491.22
2023-05-11T04:12:34.685Z,101500.81
2023-05-11T04:15:02.245Z,101505.13
2023-05-11T04:17:29.712Z,101490.34
2023-05-11T04:19:57.252Z,101496.44
2023-05-11T04:22:24.771Z,101492.97
2023-05-11T04:24:52.322Z,101493.81
2023-05-11T04:27:19.820Z,101500.75
2023-05-11T04:29:48.543Z,101510.34
2023-05-11T04:32:16.564Z,101505.97
2023-05-11T04:34:44.068Z,101505.09
2023-05-11T04:37:11.604Z,101507.69
2023-05-11T04:39:39.134Z,101512.91
2023-05-11T04:42:06.733Z,101517.25
2023-05-11T04:44:34.309Z,101509.44
2023-05-11T04:47:02.116Z,101512.91
2023-05-11T04:49:29.729Z,101510.31
2023-05-11T04:51:57.301Z,101525.06
2023-05-11T04:54:24.820Z,101524.22
2023-05-11T04:56:52.369Z,101520.72
2023-05-11T04:59:19.910Z,101527.69
2023-05-11T05:01:47.462Z,101534.63
2023-05-11T05:04:15.166Z,101522.41
2023-05-11T05:06:42.786Z,101532.84
2023-05-11T05:09:11.242Z,101527.63
2023-05-11T05:11:38.835Z,101545.88
2023-05-11T05:14:06.354Z,101541.56
2023-05-11T05:16:34.123Z,101545.03
2023-05-11T05:19:01.857Z,101542.41
2023-05-11T05:21:29.588Z,101540.66
2023-05-11T05:23:57.127Z,101548.47
2023-05-11T05:26:24.638Z,101544.97
2023-05-11T05:28:52.095Z,101544.97
2023-05-11T05:31:19.633Z,101557.19
2023-05-11T05:33:47.207Z,101548.47
2023-05-11T05:36:14.713Z,101548.47
2023-05-11T05:38:42.315Z,101559.75
2023-05-11T05:41:09.891Z,101555.38
2023-05-11T05:43:37.440Z,101557.13
2023-05-11T05:46:05.020Z,101557.97
2023-05-11T05:48:32.682Z,101564.03
2023-05-11T05:51:00.770Z,101563.97
2023-05-11T05:53:28.349Z,101561.34
2023-05-11T05:55:55.845Z,101565.63
2023-05-11T05:58:23.466Z,101569.03
2023-05-11T06:00:51.119Z,101569.91
2023-05-11T06:03:18.887Z,101567.31
2023-05-11T06:05:46.522Z,101568.13
2023-05-11T06:08:14.043Z,101577.66
2023-05-11T06:10:41.580Z,101563.72
2023-05-11T06:13:09.545Z,101565.41
2023-05-11T06:15:37.174Z,101570.63
2023-05-11T06:18:04.790Z,101575.81
2023-05-11T06:20:35.663Z,101571.47
2023-05-11T06:23:03.196Z,101570.56
2023-05-11T06:25:30.726Z,101577.53
2023-05-11T06:27:58.263Z,101574.00
2023-05-11T06:30:25.996Z,101574.81
2023-05-11T06:32:53.637Z,101578.25
2023-05-11T06:35:21.582Z,101575.59
2023-05-11T06:37:51.042Z,101578.91
2023-05-11T06:40:19.586Z,101582.28
2023-05-11T06:42:49.908Z,101575.22
2023-05-11T06:45:19.219Z,101567.22
2023-05-11T06:47:47.065Z,101578.47
2023-05-11T06:50:14.819Z,101577.63
2023-05-11T06:52:42.349Z,101583.59
2023-05-11T06:55:14.065Z,101584.25
2023-05-11T06:57:41.606Z,101579.94
2023-05-11T07:00:09.778Z,101576.16
2023-05-11T07:02:37.309Z,101570.44
2023-05-11T07:05:05.171Z,101574.53
2023-05-11T07:07:32.743Z,101572.53
2023-05-11T07:10:00.266Z,101566.13
2023-05-11T07:12:28.055Z,101560.78
2023-05-11T07:14:55.630Z,101555.28
2023-05-11T07:17:23.386Z,101553.16
2023-05-11T07:19:52.262Z,101555.84
2023-05-11T07:22:20.060Z,101545.44
2023-05-11T07:24:47.736Z,101546.06
2023-05-11T07:27:15.409Z,101546.94
2023-05-11T07:29:42.894Z,101545.16
2023-05-11T07:32:10.417Z,101537.94
2023-05-11T07:34:38.252Z,101541.84
2023-05-11T07:37:05.951Z,101543.56
2023-05-11T07:39:33.545Z,101546.09
2023-05-11T07:42:01.107Z,101544.84
2023-05-11T07:44:29.203Z,101543.44
2023-05-11T07:46:57.497Z,101547.50
2023-05-11T07:49:35.581Z,101546.44
2023-05-11T07:52:10.470Z,101546.94
2023-05-11T07:54:38.844Z,101547.31
2023-05-11T07:57:06.844Z,101539.59
2023-05-11T07:59:34.469Z,101539.97
2023-05-11T08:02:03.201Z,101539.19
2023-05-11T08:04:32.099Z,101554.31
2023-05-11T08:06:59.633Z,101538.03
2023-05-11T08:09:27.148Z,101543.41
2023-05-11T08:11:56.542Z,101546.41
2023-05-11T08:14:25.311Z,101536.25
2023-05-11T08:16:52.855Z,101547.56
2023-05-11T08:19:20.477Z,101556.06
2023-05-11T08:21:47.977Z,101550.81
2023-05-11T08:24:15.515Z,101514.84
2023-05-11T08:26:43.005Z,101549.56
2023-05-11T08:29:12.455Z,101553.88
2023-05-11T08:31:40.580Z,101552.94
2023-05-11T08:34:18.446Z,101550.41
2023-05-11T08:36:47.233Z,101549.28
2023-05-11T08:39:21.544Z,101553.47
2023-05-11T08:42:05.269Z,101545.06
2023-05-11T08:44:33.908Z,101544.88
2023-05-11T08:47:21.021Z,101542.81
2023-05-11T08:49:49.523Z,101531.38
2023-05-11T08:52:17.874Z,101539.81
2023-05-11T08:54:46.637Z,101543.31
2023-05-11T08:57:15.586Z,101539.75
2023-05-11T08:59:46.147Z,101540.19
2023-05-11T09:02:20.975Z,101526.81
2023-05-11T09:04:49.963Z,101531.88
2023-05-11T09:07:18.327Z,101533.22
2023-05-11T09:09:47.994Z,101524.78
2023-05-11T09:12:17.019Z,101536.41
2023-05-11T09:14:44.902Z,101526.91
2023-05-11T09:17:12.501Z,101536.16
2023-05-11T09:20:02.048Z,101531.53
2023-05-11T09:22:31.562Z,101537.88
2023-05-11T09:25:04.000Z,101535.22
2023-05-11T09:27:32.273Z,101538.63
2023-05-11T09:32:56.296Z,101535.84
2023-05-11T09:35:29.385Z,101533.25
2023-05-11T09:38:15.124Z,101531.22
2023-05-11T09:40:52.284Z,101537.81
2023-05-11T09:43:31.856Z,101536.16
2023-05-11T09:46:01.787Z,101529.41
2023-05-11T09:48:32.782Z,101534.84
2023-05-11T09:51:06.027Z,101530.38
2023-05-11T09:53:36.550Z,101528.88
2023-05-11T09:56:04.316Z,101536.31
2023-05-11T09:58:47.366Z,101534.47
2023-05-11T10:01:16.354Z,101528.44
2023-05-11T10:04:00.123Z,101523.81
2023-05-11T10:06:48.419Z,101528.78
2023-05-11T10:09:18.000Z,101525.22
2023-05-11T10:11:47.236Z,101519.34
2023-05-11T10:14:16.148Z,101523.16
2023-05-11T10:16:44.747Z,101515.34
2023-05-11T10:19:13.718Z,101530.41
2023-05-11T10:21:42.433Z,101524.91
2023-05-11T10:24:11.658Z,101530.53
2023-05-11T10:26:39.787Z,101523.03
2023-05-11T10:29:07.638Z,101523.91
2023-05-11T10:31:36.688Z,101520.38
2023-05-11T10:34:05.494Z,101516.66
2023-05-11T10:36:33.208Z,101521.00
2023-05-11T10:39:00.770Z,101521.44
2023-05-11T10:41:31.710Z,101524.78
2023-05-11T10:44:41.398Z,101518.28
2023-05-11T10:47:35.243Z,101518.47
2023-05-11T10:50:14.535Z,101518.56
2023-05-11T10:52:51.072Z,101527.22
2023-05-11T10:55:45.456Z,101519.09
2023-05-11T10:58:34.027Z,101523.88
2023-05-11T11:01:29.331Z,101533.09
2023-05-11T11:04:02.892Z,101531.06
2023-05-11T11:06:30.455Z,101540.34
2023-05-11T11:08:58.953Z,101543.22
2023-05-11T11:11:42.547Z,101543.63
2023-05-11T11:14:11.507Z,101537.09
2023-05-11T11:16:40.281Z,101544.78
2023-05-11T11:19:32.746Z,101549.91
2023-05-11T11:22:02.839Z,101544.28
2023-05-11T11:24:39.544Z,101545.31
2023-05-11T11:27:08.611Z,101537.72
2023-05-11T11:29:37.885Z,101535.31
2023-05-11T11:32:23.799Z,101545.16
2023-05-11T11:34:52.455Z,101538.88
2023-05-11T11:37:22.253Z,101550.94
2023-05-11T11:39:53.678Z,101544.44
2023-05-11T11:42:39.862Z,101553.50
2023-05-11T11:45:40.035Z,101561.97
2023-05-11T11:48:14.737Z,101559.41
2023-05-11T11:50:43.724Z,101575.00
2023-05-11T11:53:32.053Z,101566.44
2023-05-11T11:55:59.591Z,101565.19
2023-05-11T11:58:42.347Z,101577.50
2023-05-11T12:01:13.004Z,101579.25
2023-05-11T12:03:42.360Z,101578.94
2023-05-11T12:06:12.260Z,101582.47
2023-05-11T12:08:41.174Z,101589.97
2023-05-11T12:11:09.226Z,101585.56
2023-05-11T12:13:36.961Z,101591.00
2023-05-11T12:16:16.177Z,101598.94
2023-05-11T12:18:53.558Z,101599.84
2023-05-11T12:21:26.068Z,101600.75
2023-05-11T12:23:54.801Z,101605.09
2023-05-11T12:26:23.553Z,101606.78
2023-05-11T12:28:52.705Z,101612.81
2023-05-11T12:31:21.179Z,101616.41
2023-05-11T12:33:50.310Z,101614.75
2023-05-11T12:36:20.233Z,101619.84
2023-05-11T12:38:49.175Z,101606.78
2023-05-11T12:41:23.769Z,101617.19
2023-05-11T12:43:53.484Z,101607.69
2023-05-11T12:46:22.723Z,101614.38
2023-05-11T12:48:51.801Z,101610.91
2023-05-11T12:51:45.594Z,101609.22
2023-05-11T12:54:13.271Z,101608.47
2023-05-11T12:56:50.125Z,101607.66
2023-05-11T12:59:30.156Z,101616.94
2023-05-11T13:02:19.252Z,101611.72
2023-05-11T13:04:48.241Z,101616.97
2023-05-11T13:07:25.955Z,101615.25
2023-05-11T13:10:00.874Z,101617.84
2023-05-11T13:12:31.935Z,101619.41
2023-05-11T13:15:07.411Z,101613.28
2023-05-11T13:17:37.347Z,101620.25
2023-05-11T13:20:18.014Z,101617.69
2023-05-11T13:22:46.007Z,101616.78
2023-05-11T13:25:14.873Z,101607.28
2023-05-11T13:27:42.473Z,101615.84
2023-05-11T13:30:10.825Z,101612.28
2023-05-11T13:32:39.275Z,101609.56
2023-05-11T13:35:07.851Z,101604.03
2023-05-11T13:37:35.415Z,101608.47
2023-05-11T13:40:03.041Z,101612.66
2023-05-11T13:42:30.695Z,101614.28
2023-05-11T13:44:58.403Z,101603.94
2023-05-11T13:47:27.539Z,101603.78
2023-05-11T13:49:55.266Z,101606.41
2023-05-11T13:52:23.386Z,101603.84
2023-05-11T13:54:51.313Z,101600.28
2023-05-11T13:57:18.918Z,101594.91
2023-05-11T13:59:46.527Z,101601.63
2023-05-11T14:02:14.991Z,101601.56
2023-05-11T14:04:42.555Z,101594.44
2023-05-11T14:07:10.081Z,101595.31
2023-05-11T14:09:37.929Z,101591.66
2023-05-11T14:12:05.810Z,101595.78
2023-05-11T14:14:33.611Z,101599.28
2023-05-11T14:17:01.401Z,101595.69
2023-05-11T14:19:29.030Z,101597.34
2023-05-11T14:21:56.812Z,101597.34
2023-05-11T14:24:24.477Z,101595.50
2023-05-11T14:26:52.147Z,101593.75
2023-05-11T14:29:19.738Z,101598.78
2023-05-11T14:31:47.600Z,101592.63
2023-05-11T14:34:15.095Z,101590.97
2023-05-11T14:36:42.606Z,101588.09
2023-05-11T14:39:10.224Z,101594.25
2023-05-11T14:41:37.977Z,101596.94
2023-05-11T14:44:05.661Z,101591.53
2023-05-11T14:46:33.272Z,101593.44
2023-05-11T14:49:00.932Z,101589.72
2023-05-11T14:51:28.492Z,101589.69
2023-05-11T14:53:56.108Z,101579.19
2023-05-11T14:56:23.689Z,101575.66
2023-05-11T14:58:51.269Z,101581.63
2023-05-11T15:01:20.002Z,101576.06
2023-05-11T15:03:47.652Z,101582.84
2023-05-11T15:06:20.940Z,101581.38
2023-05-11T15:08:49.818Z,101576.09
2023-05-11T15:11:18.295Z,101582.13
2023-05-11T15:13:47.463Z,101579.69
2023-05-11T15:16:15.267Z,101581.25
2023-05-11T15:18:43.166Z,101582.84
2023-05-11T15:21:11.673Z,101572.25
2023-05-11T15:23:39.305Z,101575.81
2023-05-11T15:26:06.978Z,101575.78
2023-05-11T15:28:34.597Z,101585.63
2023-05-11T15:31:02.159Z,101579.38
2023-05-11T15:33:29.777Z,101587.38
2023-05-11T15:35:57.349Z,101582.75
2023-05-11T15:38:24.967Z,101579.50
2023-05-11T15:40:52.547Z,101591.09
2023-05-11T15:43:20.102Z,101588.25
2023-05-11T15:45:47.727Z,101603.81
2023-05-11T15:48:15.847Z,101590.19
2023-05-11T15:50:43.427Z,101592.00
2023-05-11T15:53:11.251Z,101593.66
2023-05-11T15:55:39.095Z,101588.50
2023-05-11T15:58:10.443Z,101594.72
2023-05-11T16:00:38.283Z,101600.59
2023-05-11T16:03:07.067Z,101591.84
2023-05-11T16:05:34.813Z,101600.50
2023-05-11T16:08:02.389Z,101595.25
2023-05-11T16:10:30.040Z,101597.16
2023-05-11T16:12:58.906Z,101595.34
2023-05-11T16:15:27.209Z,101598.88
2023-05-11T16:17:54.794Z,101599.16
2023-05-11T16:20:22.398Z,101591.88
2023-05-11T16:22:49.981Z,101588.19
2023-05-11T16:25:17.760Z,101591.75
2023-05-11T16:27:45.470Z,101584.53
2023-05-11T16:30:23.220Z,101589.44
2023-05-11T16:32:53.615Z,101588.38
2023-05-11T16:35:21.648Z,101582.22
2023-05-11T16:37:49.422Z,101567.47
2023-05-11T16:40:19.053Z,101567.19
2023-05-11T16:42:48.540Z,101573.38
2023-05-11T16:45:16.538Z,101572.75
2023-05-11T16:47:46.190Z,101568.16
2023-05-11T16:50:14.873Z,101571.50
2023-05-11T16:52:43.575Z,101566.00
2023-05-11T16:55:11.495Z,101563.78
2023-05-11T16:57:39.036Z,101571.25
2023-05-11T17:00:07.475Z,101578.25
2023-05-11T17:02:35.215Z,101576.97
2023-05-11T17:05:06.578Z,101581.19
2023-05-11T17:07:35.328Z,101584.41
2023-05-11T17:10:02.909Z,101584.47
2023-05-11T17:12:31.868Z,101603.63
2023-05-11T17:14:59.938Z,101593.25
2023-05-11T17:17:27.562Z,101589.78
2023-05-11T17:19:55.748Z,101585.00
2023-05-11T17:22:23.496Z,101587.63
2023-05-11T17:24:51.867Z,101594.03
2023-05-11T17:27:19.587Z,101592.34
2023-05-11T17:29:47.268Z,101588.78
2023-05-11T17:32:14.985Z,101585.34
2023-05-11T17:34:42.686Z,101604.84
2023-05-11T17:37:20.352Z,101607.00
2023-05-11T17:39:52.315Z,101597.06
2023-05-11T17:42:21.107Z,101599.94
2023-05-11T17:44:48.678Z,101601.91
2023-05-11T17:47:16.331Z,101596.56
2023-05-11T17:49:43.863Z,101606.44
2023-05-11T17:52:11.481Z,101610.78
2023-05-11T17:54:39.179Z,101605.69
2023-05-11T17:57:06.721Z,101626.78
2023-05-11T17:59:35.464Z,101612.81
2023-05-11T18:02:03.344Z,101607.53
2023-05-11T18:04:31.063Z,101619.69
2023-05-11T18:06:59.078Z,101614.69
2023-05-11T18:09:26.658Z,101623.28
2023-05-11T18:11:54.197Z,101615.25
2023-05-11T18:14:21.965Z,101619.97
2023-05-11T18:16:50.508Z,101628.50
2023-05-11T18:19:19.119Z,101626.88
2023-05-11T18:21:46.701Z,101625.03
2023-05-11T18:24:15.092Z,101623.44
2023-05-11T18:26:42.985Z,101626.94
2023-05-11T18:29:10.444Z,101632.31
2023-05-11T18:31:38.115Z,101642.88
2023-05-11T18:34:05.761Z,101639.50
2023-05-11T18:36:33.299Z,101633.28
2023-05-11T18:39:01.131Z,101643.09
2023-05-11T18:41:29.374Z,101638.00
2023-05-11T18:43:57.025Z,101642.16
2023-05-11T18:46:24.508Z,101643.22
2023-05-11T18:48:52.914Z,101638.00
2023-05-11T18:51:22.663Z,101645.88
2023-05-11T18:53:51.178Z,101648.41
2023-05-11T18:56:18.828Z,101651.88
2023-05-11T18:58:46.882Z,101648.56
2023-05-11T19:01:15.149Z,101650.31
2023-05-11T19:03:42.792Z,101655.56
2023-05-11T19:06:10.416Z,101654.66
2023-05-11T19:08:37.967Z,101659.91
2023-05-11T19:11:10.323Z,101667.06
2023-05-11T19:13:38.209Z,101664.44
2023-05-11T19:16:05.963Z,101672.28
2023-05-11T19:18:35.516Z,101671.41
2023-05-11T19:21:05.196Z,101673.09
2023-05-11T19:23:34.355Z,101684.47
2023-05-11T19:26:01.914Z,101680.22
2023-05-11T19:28:29.472Z,101685.53
2023-05-11T19:31:03.290Z,101688.16
2023-05-11T19:33:30.908Z,101682.03
2023-05-11T19:35:58.550Z,101696.00
2023-05-11T19:38:26.148Z,101686.38
2023-05-11T19:40:53.845Z,101706.44
2023-05-11T19:43:22.815Z,101692.50
2023-05-11T19:45:50.489Z,101701.25
2023-05-11T19:48:18.180Z,101704.75
2023-05-11T19:50:46.269Z,101710.00
2023-05-11T19:53:13.773Z,101708.25
2023-05-11T19:55:41.461Z,101710.00
2023-05-11T19:58:09.339Z,101709.16
2023-05-11T20:00:37.001Z,101712.59
2023-05-11T20:03:04.827Z,101719.56
2023-05-11T20:05:32.360Z,101723.09
2023-05-11T20:08:00.426Z,101725.69
2023-05-11T20:10:28.154Z,101741.38
2023-05-11T20:12:56.838Z,101733.59
2023-05-11T20:15:24.442Z,101739.66
2023-05-11T20:17:51.988Z,101733.56
2023-05-11T20:20:20.047Z,101738.78
2023-05-11T20:22:47.809Z,101747.50
2023-05-11T20:25:18.724Z,101737.91
2023-05-11T20:27:46.838Z,101742.28
2023-05-11T20:30:15.127Z,101742.28
2023-05-11T20:34:06.718Z,101744.00
2023-05-11T20:35:31.105Z,101746.63
2023-05-11T20:37:58.680Z,101754.47
2023-05-11T20:40:26.488Z,101739.63
2023-05-11T20:42:54.103Z,101743.13
2023-05-11T20:45:21.695Z,101750.97
2023-05-11T20:47:49.287Z,101744.88
2023-05-11T20:50:17.099Z,101750.13
2023-05-11T20:52:44.820Z,101750.09
2023-05-11T20:55:12.328Z,101741.41
2023-05-11T20:57:39.815Z,101741.38
2023-05-11T21:00:08.466Z,101741.38
2023-05-11T21:02:36.157Z,101742.25
2023-05-11T21:05:04.182Z,101747.44
2023-05-11T21:07:31.694Z,101744.88
2023-05-11T21:09:59.187Z,101744.88
2023-05-11T21:12:26.728Z,101750.03
2023-05-11T21:14:56.760Z,101738.75
2023-05-11T21:17:24.733Z,101751.88
2023-05-11T21:19:52.336Z,101754.47
2023-05-11T21:22:19.859Z,101747.50
2023-05-11T21:24:47.372Z,101757.06
2023-05-11T21:27:15.253Z,101757.97
2023-05-11T21:29:42.996Z,101755.34
2023-05-11T21:32:10.605Z,101760.53
2023-05-11T21:34:38.384Z,101767.50
2023-05-11T21:37:05.914Z,101764.00
2023-05-11T21:39:33.453Z,101768.41
2023-05-11T21:42:01.629Z,101761.44
2023-05-11T21:44:29.771Z,101763.16
2023-05-11T21:46:57.389Z,101772.75
2023-05-11T21:49:25.064Z,101769.25
2023-05-11T21:51:52.812Z,101775.34
2023-05-11T21:54:22.183Z,101770.97
2023-05-11T21:56:50.650Z,101776.25
2023-05-11T21:59:18.624Z,101768.41
2023-05-11T22:01:49.107Z,101774.50
2023-05-11T22:04:16.736Z,101764.91
2023-05-11T22:06:44.326Z,101768.47
2023-05-11T22:09:12.827Z,101763.19
2023-05-11T22:11:40.675Z,101763.19
2023-05-11T22:14:08.191Z,101767.59
2023-05-11T22:16:35.821Z,101765.03
2023-05-11T22:19:03.980Z,101771.97
2023-05-11T22:21:31.618Z,101768.50
2023-05-11T22:23:59.133Z,101783.31
2023-05-11T22:26:27.333Z,101772.91
2023-05-11T22:28:55.055Z,101781.63
2023-05-11T22:31:22.634Z,101775.47
2023-05-11T22:33:50.248Z,101774.66
2023-05-11T22:36:17.726Z,101778.13
2023-05-11T22:38:45.263Z,101779.88
2023-05-11T22:41:12.752Z,101764.25
2023-05-11T22:43:40.283Z,101768.59
2023-05-11T22:46:07.862Z,101767.72
2023-05-11T22:48:35.377Z,101770.34
2023-05-11T22:51:06.277Z,101769.44
2023-05-11T22:53:33.861Z,101779.00
2023-05-11T22:56:05.797Z,101765.13
2023-05-11T22:58:33.309Z,101762.47
2023-05-11T23:01:01.294Z,101772.94
2023-05-11T23:03:29.026Z,101768.59
2023-05-11T23:05:56.543Z,101765.13
2023-05-11T23:08:26.177Z,101773.84
2023-05-11T23:10:54.097Z,101764.28
2023-05-11T23:13:21.646Z,101767.75
2023-05-11T23:15:50.317Z,101768.59
2023-05-11T23:18:17.938Z,101759.03
2023-05-11T23:20:45.520Z,101752.09
2023-05-11T23:23:13.388Z,101753.81
2023-05-11T23:25:41.151Z,101754.69
2023-05-11T23:28:11.420Z,101750.34
2023-05-11T23:30:39.046Z,101760.78
2023-05-11T23:33:06.544Z,101766.88
2023-05-11T23:35:34.176Z,101759.06
2023-05-11T23:38:01.680Z,101760.78
2023-05-11T23:40:29.364Z,101758.19
2023-05-11T23:42:57.271Z,101753.81
2023-05-11T23:45:26.415Z,101752.06
2023-05-11T23:47:54.120Z,101751.22
2023-05-11T23:50:21.931Z,101748.59
2023-05-11T23:52:49.627Z,101751.22
2023-05-11T23:55:17.157Z,101759.84
2023-05-11T23:57:45.019Z,101757.28
